createdAt,value
2019-05-12T00:00:51.583Z,2.90
2019-05-12T00:03:18.924Z,2.13
2019-05-12T00:05:45.097Z,1.60
2019-05-12T00:08:11.117Z,2.20
2019-05-12T00:10:38.709Z,1.40
2019-05-12T00:13:05.089Z,1.60
2019-05-12T00:15:31.105Z,2.10
2019-05-12T00:17:58.739Z,1.40
2019-05-12T00:20:24.895Z,1.80
2019-05-12T00:22:52.916Z,2.10
2019-05-12T00:25:19.198Z,2.70
2019-05-12T00:27:45.426Z,2.30
2019-05-12T00:30:13.562Z,2.20
2019-05-12T00:32:39.599Z,1.77
2019-05-12T00:35:07.870Z,2.10
2019-05-12T00:37:33.936Z,3.47
2019-05-12T00:39:59.948Z,1.80
2019-05-12T00:42:25.945Z,2.37
2019-05-12T00:44:51.993Z,2.10
2019-05-12T00:47:18.775Z,2.53
2019-05-12T00:49:44.996Z,1.93
2019-05-12T00:52:11.099Z,2.87
2019-05-12T00:54:37.566Z,1.73
2019-05-12T00:57:03.782Z,2.20
2019-05-12T00:59:30.108Z,2.20
2019-05-12T01:01:58.485Z,2.33
2019-05-12T01:04:24.224Z,2.13
2019-05-12T01:06:52.034Z,2.43
2019-05-12T01:09:18.189Z,1.90
2019-05-12T01:11:44.237Z,2.67
2019-05-12T01:14:10.350Z,2.37
2019-05-12T01:16:38.513Z,2.30
2019-05-12T01:19:04.409Z,2.50
2019-05-12T01:21:30.406Z,2.20
2019-05-12T01:24:02.686Z,2.47
2019-05-12T01:26:24.345Z,2.50
2019-05-12T01:28:50.366Z,2.47
2019-05-12T01:31:18.312Z,2.70
2019-05-12T01:33:44.358Z,3.40
2019-05-12T01:36:10.546Z,2.60
2019-05-12T01:38:37.972Z,2.60
2019-05-12T01:41:04.200Z,2.60
2019-05-12T01:43:30.352Z,2.77
2019-05-12T01:45:58.655Z,2.33
2019-05-12T01:48:24.422Z,3.17
2019-05-12T01:50:50.468Z,2.73
2019-05-12T01:53:18.163Z,2.23
2019-05-12T01:58:11.472Z,3.30
2019-05-12T02:32:25.248Z,2.37
2019-05-12T02:34:54.607Z,2.73
2019-05-12T02:37:19.416Z,2.50
2019-05-12T02:39:45.539Z,2.20
2019-05-12T02:42:11.576Z,2.40
2019-05-12T02:44:37.672Z,2.63
2019-05-12T02:47:05.047Z,2.83
2019-05-12T02:49:34.673Z,2.30
2019-05-12T02:51:59.269Z,2.80
2019-05-12T02:54:45.871Z,2.40
2019-05-12T02:56:55.148Z,2.67
2019-05-12T02:59:25.021Z,3.07
2019-05-12T03:01:54.830Z,2.20
2019-05-12T03:04:24.719Z,2.30
2019-05-12T03:06:54.830Z,2.63
2019-05-12T03:09:24.347Z,3.30
2019-05-12T03:11:50.513Z,2.47
2019-05-12T03:14:16.517Z,2.90
2019-05-12T03:16:45.382Z,2.70
2019-05-12T03:19:10.584Z,3.43
2019-05-12T03:21:36.726Z,3.57
2019-05-12T03:24:06.052Z,2.10
2019-05-12T03:26:31.356Z,2.80
2019-05-12T03:28:58.201Z,3.20
2019-05-12T03:31:30.949Z,2.90
2019-05-12T03:33:59.695Z,2.90
2019-05-12T03:36:20.484Z,2.93
2019-05-12T03:38:46.576Z,3.53
2019-05-12T03:41:14.754Z,3.17
2019-05-12T03:43:40.538Z,2.70
2019-05-12T03:46:06.594Z,2.40
2019-05-12T03:48:34.893Z,3.90
2019-05-12T03:51:00.662Z,3.33
2019-05-12T03:53:26.906Z,2.67
2019-05-12T03:55:55.245Z,3.13
2019-05-12T03:58:21.024Z,3.07
2019-05-12T04:00:47.130Z,2.57
2019-05-12T04:03:15.251Z,2.60
2019-05-12T04:05:41.058Z,3.57
2019-05-12T04:08:07.171Z,3.60
2019-05-12T04:10:35.353Z,3.93
2019-05-12T04:13:04.566Z,4.03
2019-05-12T04:15:30.349Z,2.30
2019-05-12T04:17:56.429Z,2.97
2019-05-12T04:20:25.139Z,3.60
2019-05-12T04:22:50.439Z,2.50
2019-05-12T04:25:16.604Z,3.27
2019-05-12T04:27:45.093Z,2.80
2019-05-12T04:30:14.206Z,3.23
2019-05-12T04:32:38.834Z,2.80
2019-05-12T04:35:05.379Z,3.43
2019-05-12T04:37:31.561Z,3.80
2019-05-12T04:39:57.700Z,3.23
2019-05-12T04:42:25.080Z,3.60
2019-05-12T04:44:51.410Z,3.63
2019-05-12T04:47:17.468Z,3.07
2019-05-12T04:49:45.220Z,3.23
2019-05-12T04:52:11.441Z,3.10
2019-05-12T04:54:37.506Z,3.37
2019-05-12T04:57:04.309Z,3.20
2019-05-12T04:59:30.505Z,3.83
2019-05-12T05:01:56.579Z,3.40
2019-05-12T05:04:24.446Z,3.50
2019-05-12T05:06:50.483Z,4.00
2019-05-12T05:09:16.552Z,3.33
2019-05-12T05:11:45.101Z,3.07
2019-05-12T05:14:10.597Z,2.70
2019-05-12T05:16:36.733Z,3.93
2019-05-12T05:19:03.600Z,2.67
2019-05-12T05:21:29.960Z,3.17
2019-05-12T05:23:56.058Z,3.33
2019-05-12T05:26:27.867Z,3.13
2019-05-12T05:28:50.098Z,2.80
2019-05-12T05:31:16.210Z,3.80
2019-05-12T05:33:43.458Z,3.60
2019-05-12T05:36:15.150Z,2.80
2019-05-12T05:38:37.637Z,2.97
2019-05-12T05:41:05.955Z,2.87
2019-05-12T05:43:33.332Z,4.47
2019-05-12T05:46:02.811Z,3.20
2019-05-12T05:48:27.448Z,3.63
2019-05-12T05:50:54.171Z,3.00
2019-05-12T05:53:20.296Z,4.07
2019-05-12T05:55:50.260Z,3.00
2019-05-12T05:58:15.410Z,3.27
2019-05-12T06:00:43.466Z,3.50
2019-05-12T06:03:14.952Z,3.27
2019-05-12T06:05:38.704Z,3.03
2019-05-12T06:08:09.708Z,3.40
2019-05-12T06:10:36.075Z,3.30
2019-05-12T06:13:01.042Z,3.00
2019-05-12T06:15:29.730Z,4.30
2019-05-12T06:17:55.125Z,3.53
2019-05-12T06:20:23.687Z,2.70
2019-05-12T06:22:54.442Z,4.63
2019-05-12T06:25:17.088Z,3.10
2019-05-12T06:27:44.301Z,3.40
2019-05-12T06:30:10.738Z,3.03
2019-05-12T06:32:41.204Z,3.90
2019-05-12T06:35:05.483Z,3.00
2019-05-12T06:37:33.695Z,2.93
2019-05-12T06:40:00.644Z,3.70
2019-05-12T06:42:26.786Z,4.07
2019-05-12T06:44:55.036Z,3.87
2019-05-12T06:47:20.737Z,3.20
2019-05-12T06:49:48.745Z,3.30
2019-05-12T06:52:14.638Z,2.67
2019-05-12T06:54:44.578Z,3.10
2019-05-12T06:57:20.944Z,2.97
2019-05-12T06:59:36.718Z,3.73
2019-05-12T07:02:03.361Z,3.07
2019-05-12T07:04:29.513Z,2.50
2019-05-12T07:07:00.436Z,3.10
2019-05-12T07:09:27.918Z,3.63
2019-05-12T07:11:58.827Z,3.27
2019-05-12T07:14:23.248Z,3.10
2019-05-12T07:16:55.338Z,2.30
2019-05-12T07:19:22.915Z,3.30
2019-05-12T07:21:45.485Z,3.27
2019-05-12T07:24:11.800Z,2.67
2019-05-12T07:26:37.843Z,3.80
2019-05-12T07:29:04.536Z,2.83
2019-05-12T07:31:30.643Z,2.63
2019-05-12T07:33:57.748Z,2.40
2019-05-12T07:36:24.267Z,3.47
2019-05-12T07:38:58.123Z,3.27
2019-05-12T07:41:20.561Z,2.73
2019-05-12T07:43:50.519Z,2.70
2019-05-12T07:46:15.723Z,2.50
2019-05-12T07:48:49.080Z,3.17
2019-05-12T07:51:09.869Z,2.80
2019-05-12T07:53:35.899Z,2.60
2019-05-12T07:56:04.053Z,2.80
2019-05-12T07:58:29.864Z,2.17
2019-05-12T08:01:02.286Z,2.23
2019-05-12T08:03:24.379Z,2.10
2019-05-12T08:05:51.433Z,2.23
2019-05-12T08:08:18.435Z,2.97
2019-05-12T08:10:44.515Z,3.47
2019-05-12T08:13:10.587Z,3.00
2019-05-12T08:15:39.832Z,2.80
2019-05-12T08:18:07.784Z,2.63
2019-05-12T08:20:34.352Z,2.77
2019-05-12T08:23:05.746Z,2.33
2019-05-12T08:25:28.950Z,2.23
2019-05-12T08:28:11.053Z,3.43
2019-05-12T08:30:33.637Z,2.37
2019-05-12T08:33:03.660Z,2.93
2019-05-12T08:35:34.707Z,2.90
2019-05-12T08:37:55.405Z,2.27
2019-05-12T08:40:21.408Z,3.53
2019-05-12T08:42:47.409Z,3.27
2019-05-12T08:45:23.824Z,2.20
2019-05-12T08:47:43.871Z,2.50
2019-05-12T08:50:09.563Z,2.80
2019-05-12T08:52:37.160Z,2.30
2019-05-12T08:55:04.474Z,2.57
2019-05-12T08:57:34.922Z,2.77
2019-05-12T09:00:03.047Z,2.90
2019-05-12T09:02:26.442Z,3.53
2019-05-12T09:04:55.582Z,2.10
2019-05-12T09:07:20.664Z,2.33
2019-05-12T09:09:46.793Z,2.23
2019-05-12T09:12:13.992Z,3.23
2019-05-12T09:14:41.440Z,2.87
2019-05-12T09:17:08.173Z,3.13
2019-05-12T09:19:34.241Z,2.63
2019-05-12T09:22:07.183Z,2.40
2019-05-12T09:24:28.265Z,2.60
2019-05-12T09:26:59.150Z,2.77
2019-05-12T09:29:22.620Z,1.97
2019-05-12T09:31:50.623Z,3.10
2019-05-12T09:34:16.695Z,2.03
2019-05-12T09:36:44.207Z,2.13
2019-05-12T09:39:10.432Z,4.10
2019-05-12T09:41:42.740Z,3.43
2019-05-12T09:44:04.640Z,2.53
2019-05-12T09:46:34.420Z,2.67
2019-05-12T09:48:58.713Z,2.20
2019-05-12T09:51:25.772Z,3.90
2019-05-12T09:53:55.225Z,3.20
2019-05-12T09:56:20.037Z,2.20
2019-05-12T09:58:58.305Z,2.37
2019-05-12T10:01:14.237Z,2.07
2019-05-12T10:03:40.242Z,2.30
2019-05-12T10:06:06.317Z,2.70
2019-05-12T10:08:35.736Z,2.20
2019-05-12T10:11:00.209Z,3.30
2019-05-12T10:13:30.080Z,3.90
2019-05-12T10:15:58.668Z,3.43
2019-05-12T10:18:24.346Z,2.33
2019-05-12T10:20:50.203Z,2.70
2019-05-12T10:23:20.016Z,3.83
2019-05-12T10:25:44.827Z,2.30
2019-05-12T10:28:12.874Z,3.30
2019-05-12T10:30:39.073Z,2.50
2019-05-12T10:33:05.091Z,2.50
2019-05-12T10:35:31.119Z,2.70
2019-05-12T10:38:00.114Z,4.40
2019-05-12T10:40:25.057Z,2.03
2019-05-12T10:42:53.430Z,1.70
2019-05-12T10:45:23.304Z,2.30
2019-05-12T10:47:48.852Z,2.80
2019-05-12T10:50:15.201Z,2.53
2019-05-12T10:52:44.017Z,3.13
2019-05-12T10:55:10.561Z,2.17
2019-05-12T10:57:36.650Z,2.27
2019-05-12T11:00:08.194Z,3.97
2019-05-12T11:02:34.209Z,2.43
2019-05-12T11:05:00.245Z,1.87
2019-05-12T11:07:28.028Z,2.40
2019-05-12T11:09:54.453Z,3.40
2019-05-12T11:12:25.314Z,2.60
2019-05-12T11:14:48.440Z,1.70
2019-05-12T11:17:14.564Z,2.67
2019-05-12T11:19:45.861Z,2.90
2019-05-12T11:22:08.517Z,2.47
2019-05-12T11:24:34.681Z,2.83
2019-05-12T11:27:00.827Z,2.10
2019-05-12T11:29:42.562Z,2.50
2019-05-12T11:31:57.041Z,2.03
2019-05-12T11:34:23.197Z,2.17
2019-05-12T11:36:49.213Z,1.70
2019-05-12T11:39:15.264Z,2.40
2019-05-12T11:41:41.283Z,2.90
2019-05-12T11:44:07.281Z,1.87
2019-05-12T11:46:36.280Z,1.90
2019-05-12T11:49:01.304Z,2.13
2019-05-12T11:51:30.540Z,2.13
2019-05-12T11:53:55.268Z,2.13
2019-05-12T11:56:21.322Z,2.00
2019-05-12T11:58:51.353Z,2.10
2019-05-12T12:01:17.164Z,2.00
2019-05-12T12:03:44.061Z,2.53
2019-05-12T12:06:10.172Z,2.20
2019-05-12T12:08:37.367Z,2.50
2019-05-12T12:11:03.946Z,1.90
2019-05-12T12:13:30.250Z,2.77
2019-05-12T12:16:00.501Z,1.80
2019-05-12T12:18:24.443Z,1.80
2019-05-12T12:20:55.094Z,2.30
2019-05-12T12:23:18.548Z,2.97
2019-05-12T12:25:48.477Z,1.90
2019-05-12T12:28:13.605Z,3.20
2019-05-12T12:30:39.877Z,3.20
2019-05-12T12:33:05.840Z,2.30
2019-05-12T12:35:34.524Z,2.60
2019-05-12T12:38:00.261Z,2.10
2019-05-12T12:40:28.651Z,2.20
2019-05-12T12:42:54.174Z,2.30
2019-05-12T12:45:24.918Z,3.97
2019-05-12T12:47:50.943Z,5.20
2019-05-12T12:50:20.301Z,7.53
2019-05-12T12:52:48.799Z,5.60
2019-05-12T12:55:14.030Z,14.67
2019-05-12T12:57:44.867Z,4.37
2019-05-12T13:00:08.654Z,5.90
2019-05-12T13:02:39.085Z,6.83
2019-05-12T13:05:03.203Z,3.50
2019-05-12T13:07:29.347Z,10.93
2019-05-12T13:10:04.564Z,9.57
2019-05-12T13:12:23.263Z,5.10
2019-05-12T13:14:49.268Z,2.00
2019-05-12T13:17:15.296Z,3.47
2019-05-12T13:19:43.548Z,1.90
2019-05-12T13:22:14.170Z,2.13
2019-05-12T13:24:37.114Z,2.10
2019-05-12T13:27:03.646Z,1.40
2019-05-12T13:29:35.469Z,1.40
2019-05-12T13:31:57.653Z,1.90
2019-05-12T13:34:23.808Z,2.00
2019-05-12T13:36:49.978Z,2.73
2019-05-12T13:39:16.598Z,1.50
2019-05-12T13:41:43.785Z,2.20
2019-05-12T13:44:09.904Z,1.80
2019-05-12T13:46:35.897Z,1.43
2019-05-12T13:49:03.166Z,1.47
2019-05-12T13:51:29.384Z,1.87
2019-05-12T13:53:55.404Z,1.50
2019-05-12T13:56:27.369Z,1.50
2019-05-12T13:58:49.320Z,1.50
2019-05-12T14:01:19.808Z,2.23
2019-05-12T14:03:46.196Z,1.70
2019-05-12T14:06:11.201Z,1.87
2019-05-12T14:08:37.216Z,1.80
2019-05-12T14:11:03.197Z,2.03
2019-05-12T14:13:29.229Z,1.90
2019-05-12T14:15:55.222Z,1.57
2019-05-12T14:18:21.286Z,1.73
2019-05-12T14:20:50.991Z,1.67
2019-05-12T14:23:15.203Z,1.93
2019-05-12T14:25:43.135Z,1.73
2019-05-12T14:28:09.549Z,1.67
2019-05-12T14:30:35.808Z,1.43
2019-05-12T14:33:03.414Z,2.13
2019-05-12T14:35:32.408Z,1.50
2019-05-12T14:37:57.545Z,2.33
2019-05-12T14:40:30.003Z,1.60
2019-05-12T14:42:51.502Z,1.70
2019-05-12T14:45:19.476Z,5.30
2019-05-12T14:47:45.426Z,6.10
2019-05-12T14:50:13.832Z,4.50
2019-05-12T14:52:39.540Z,7.23
2019-05-12T14:55:06.017Z,7.77
2019-05-12T14:57:37.399Z,7.80
2019-05-12T15:00:00.109Z,7.60
2019-05-12T15:02:29.414Z,9.00
2019-05-12T15:04:54.304Z,8.07
2019-05-12T15:07:20.389Z,5.93
2019-05-12T15:09:46.550Z,2.93
2019-05-12T15:12:14.069Z,2.00
2019-05-12T15:14:40.203Z,1.97
2019-05-12T15:17:06.325Z,1.90
2019-05-12T15:19:33.491Z,2.43
2019-05-12T15:22:01.527Z,3.27
2019-05-12T15:24:27.775Z,1.90
2019-05-12T15:26:57.452Z,1.47
2019-05-12T15:29:23.464Z,1.60
2019-05-12T15:31:54.338Z,2.57
2019-05-12T15:34:17.600Z,1.80
2019-05-12T15:36:51.659Z,2.33
2019-05-12T15:39:13.792Z,1.80
2019-05-12T15:41:39.572Z,1.67
2019-05-12T15:44:06.509Z,2.70
2019-05-12T15:46:40.802Z,2.53
2019-05-12T15:49:00.732Z,2.50
2019-05-12T15:51:26.755Z,2.10
2019-05-12T15:53:59.550Z,1.80
2019-05-12T15:56:25.385Z,2.40
2019-05-12T15:58:48.588Z,2.37
2019-05-12T16:01:17.003Z,2.13
2019-05-12T16:03:43.786Z,1.83
2019-05-12T16:06:11.925Z,2.10
2019-05-12T16:08:37.892Z,2.37
2019-05-12T16:11:05.118Z,2.20
2019-05-12T16:13:33.649Z,2.20
2019-05-12T16:16:04.203Z,1.80
2019-05-12T16:18:27.892Z,2.33
2019-05-12T16:20:58.972Z,2.67
2019-05-12T16:23:29.656Z,2.30
2019-05-12T16:25:50.426Z,2.60
2019-05-12T16:28:23.084Z,3.30
2019-05-12T16:30:47.367Z,2.30
2019-05-12T16:33:20.534Z,3.30
2019-05-12T16:35:44.162Z,1.80
2019-05-12T16:38:17.908Z,1.90
2019-05-12T16:40:39.521Z,2.80
2019-05-12T16:43:06.161Z,2.00
2019-05-12T16:45:34.102Z,2.03
2019-05-12T16:48:05.532Z,1.93
2019-05-12T16:50:28.214Z,2.17
2019-05-12T16:52:54.442Z,2.30
2019-05-12T16:55:20.540Z,2.03
2019-05-12T16:57:52.757Z,2.27
2019-05-12T17:00:14.757Z,2.30
2019-05-12T17:02:42.173Z,1.60
2019-05-12T17:05:18.142Z,2.07
2019-05-12T17:07:37.127Z,1.53
2019-05-12T17:10:11.608Z,1.57
2019-05-12T17:12:36.863Z,2.40
2019-05-12T17:15:00.546Z,1.73
2019-05-12T17:17:26.580Z,1.63
2019-05-12T17:19:54.014Z,2.33
2019-05-12T17:22:20.699Z,2.90
2019-05-12T17:24:46.683Z,32.47
2019-05-12T17:27:15.784Z,79.00
2019-05-12T17:29:40.615Z,54.33
2019-05-12T17:32:06.636Z,52.93
2019-05-12T17:34:33.953Z,63.20
2019-05-12T17:37:00.579Z,4.60
2019-05-12T17:39:29.248Z,1.43
2019-05-12T17:41:54.552Z,1.77
2019-05-12T17:44:20.580Z,1.90
2019-05-12T17:46:46.557Z,1.40
2019-05-12T17:49:15.802Z,2.00
2019-05-12T17:51:40.486Z,2.20
2019-05-12T17:54:07.237Z,1.80
2019-05-12T17:56:38.650Z,1.50
2019-05-12T17:59:04.333Z,1.50
2019-05-12T18:01:31.517Z,1.80
2019-05-12T18:03:58.501Z,1.80
2019-05-12T18:06:26.966Z,1.63
2019-05-12T18:08:53.410Z,1.67
2019-05-12T18:11:19.555Z,1.70
2019-05-12T18:13:45.577Z,1.87
2019-05-12T18:16:17.574Z,2.80
2019-05-12T18:18:39.893Z,2.33
2019-05-12T18:21:06.172Z,1.80
2019-05-12T18:23:34.367Z,1.90
2019-05-12T18:26:03.064Z,2.10
2019-05-12T18:28:29.549Z,2.20
2019-05-12T18:30:55.855Z,1.67
2019-05-12T18:33:33.563Z,2.17
2019-05-12T18:35:54.534Z,1.83
2019-05-12T18:38:23.941Z,2.10
2019-05-12T18:40:48.377Z,1.87
2019-05-12T18:43:14.343Z,1.80
2019-05-12T18:45:40.771Z,2.80
2019-05-12T18:48:16.636Z,2.20
2019-05-12T18:50:35.992Z,2.33
2019-05-12T18:53:02.878Z,1.70
2019-05-12T18:55:34.965Z,1.40
2019-05-12T18:57:57.184Z,2.57
2019-05-12T19:00:25.248Z,2.43
2019-05-12T19:02:51.451Z,2.20
2019-05-12T19:05:21.991Z,1.47
2019-05-12T19:07:45.845Z,2.30
2019-05-12T19:10:14.178Z,4.57
2019-05-12T19:12:40.073Z,9.77
2019-05-12T19:15:10.201Z,21.40
2019-05-12T19:17:36.729Z,9.77
2019-05-12T19:20:05.425Z,10.57
2019-05-12T19:22:33.531Z,11.70
2019-05-12T19:25:00.134Z,12.73
2019-05-12T19:27:26.391Z,7.97
2019-05-12T19:29:54.597Z,6.33
2019-05-12T19:32:20.512Z,5.27
2019-05-12T19:34:47.102Z,5.00
2019-05-12T19:37:14.250Z,3.43
2019-05-12T19:39:40.473Z,3.43
2019-05-12T19:42:10.614Z,2.20
2019-05-12T19:44:34.484Z,2.47
2019-05-12T19:47:00.601Z,2.70
2019-05-12T19:49:28.432Z,2.10
2019-05-12T19:51:54.704Z,2.40
2019-05-12T19:54:25.396Z,2.40
2019-05-12T19:56:48.981Z,2.03
2019-05-12T19:59:14.973Z,2.80
2019-05-12T20:01:40.989Z,2.50
2019-05-12T20:04:07.056Z,2.70
2019-05-12T20:06:33.681Z,1.90
2019-05-12T20:09:06.599Z,1.97
2019-05-12T20:11:31.377Z,3.13
2019-05-12T20:13:55.983Z,3.40
2019-05-12T20:16:29.748Z,2.33
2019-05-12T20:18:50.280Z,2.70
2019-05-12T20:21:20.427Z,1.77
2019-05-12T20:23:44.348Z,8.67
2019-05-12T20:26:10.550Z,3.10
2019-05-12T20:28:36.661Z,6.23
2019-05-12T20:31:05.897Z,8.10
2019-05-12T20:33:31.408Z,4.93
2019-05-12T20:35:57.436Z,8.90
2019-05-12T20:38:27.100Z,28.33
2019-05-12T20:40:53.852Z,22.73
2019-05-12T20:43:24.079Z,23.23
2019-05-12T20:45:47.365Z,6.00
2019-05-12T20:48:14.476Z,15.90
2019-05-12T20:50:40.764Z,4.60
2019-05-12T20:53:06.760Z,3.73
2019-05-12T20:55:36.628Z,4.03
2019-05-12T20:58:00.845Z,4.80
2019-05-12T21:00:26.875Z,3.97
2019-05-12T21:02:53.929Z,3.97
2019-05-12T21:05:20.302Z,2.50
2019-05-12T21:07:46.426Z,2.90
2019-05-12T21:10:14.723Z,2.73
2019-05-12T21:12:46.555Z,2.50
2019-05-12T21:15:16.439Z,2.57
2019-05-12T21:17:43.085Z,3.30
2019-05-12T21:20:11.818Z,2.67
2019-05-12T21:22:38.445Z,2.53
2019-05-12T21:25:10.759Z,3.07
2019-05-12T21:27:33.428Z,2.73
2019-05-12T21:30:00.755Z,2.47
2019-05-12T21:32:27.583Z,3.50
2019-05-12T21:34:57.816Z,2.70
2019-05-12T21:37:21.607Z,3.27
2019-05-12T21:39:50.934Z,2.50
2019-05-12T21:42:15.587Z,2.83
2019-05-12T21:44:47.116Z,3.40
2019-05-12T21:47:10.752Z,2.80
2019-05-12T21:49:36.982Z,3.03
2019-05-12T21:52:06.298Z,2.13
2019-05-12T21:54:36.159Z,2.93
2019-05-12T21:56:58.959Z,3.20
2019-05-12T21:59:28.819Z,4.30
2019-05-12T22:01:53.371Z,3.50
2019-05-12T22:04:19.509Z,2.27
2019-05-12T22:06:45.568Z,5.10
2019-05-12T22:09:11.594Z,3.70
2019-05-12T22:11:42.249Z,3.03
2019-05-12T22:14:06.778Z,3.00
2019-05-12T22:16:43.265Z,3.03
2019-05-12T22:19:03.770Z,3.13
2019-05-12T22:21:29.780Z,3.73
2019-05-12T22:23:56.353Z,4.00
2019-05-12T22:26:22.639Z,3.63
2019-05-12T22:28:50.850Z,2.90
2019-05-12T22:31:17.210Z,3.63
2019-05-12T22:33:51.511Z,3.23
2019-05-12T22:36:24.753Z,4.77
2019-05-12T22:38:40.224Z,13.07
2019-05-12T22:41:06.220Z,20.63
2019-05-12T22:43:40.818Z,24.37
2019-05-12T22:46:00.302Z,10.03
2019-05-12T22:48:29.700Z,18.80
2019-05-12T22:50:54.968Z,7.10
2019-05-12T22:53:25.786Z,8.40
2019-05-12T22:55:49.101Z,3.13
2019-05-12T22:58:20.658Z,3.20
2019-05-12T23:00:44.395Z,3.40
2019-05-12T23:03:12.456Z,3.30
2019-05-12T23:05:38.955Z,3.23
2019-05-12T23:08:08.363Z,4.00
2019-05-12T23:10:33.033Z,2.73
2019-05-12T23:13:01.830Z,2.43
2019-05-12T23:15:27.010Z,3.70
2019-05-12T23:17:53.270Z,4.07
2019-05-12T23:20:19.425Z,5.00
2019-05-12T23:22:45.817Z,7.50
2019-05-12T23:25:20.067Z,10.47
2019-05-12T23:27:44.055Z,8.17
2019-05-12T23:30:12.562Z,3.07
2019-05-12T23:32:42.905Z,3.33
2019-05-12T23:35:06.680Z,3.00
2019-05-12T23:37:38.376Z,3.33
2019-05-12T23:40:04.182Z,4.70
2019-05-12T23:42:30.043Z,2.47
2019-05-12T23:44:56.141Z,3.17
2019-05-12T23:47:23.754Z,4.23
2019-05-12T23:49:50.087Z,2.73
2019-05-12T23:52:16.145Z,2.73
2019-05-12T23:54:44.372Z,2.90
2019-05-12T23:57:12.967Z,3.10
2019-05-12T23:59:39.025Z,2.97
